Astra — PB4187 — position and weather

sailwx.info

Track history (hours):
 
Tides and Currents Weather Stations Pressure Air Temp Water Temp Dewpoint Dewpoint Depression Visibility Wind Speed Wind Dir Waves Ship Positions

Astra

Last reported at 2016-Aug-24 12:30 UTC. Time now 2016-Aug-24 17:57 UTC.
Position N 51°30' E 006°43'.

Length 110 m.

Type: Tanker. MMSI: 244650752.

Date/timePositionNaut miles runAvg speedWind from/ knotsBaromVisibWave heightAir tempDewpointWater temp
2016-Aug-24 12:30N 51°30' E 006°43'5 4.9
2016-Aug-24 11:33N 51°34' E 006°41'4 4.1
2016-Aug-24 10:33N 51°37' E 006°36'4 4.2
2016-Aug-24 09:33N 51°40' E 006°31'26 5.2
2016-Aug-24 04:32N 51°52' E 005°54'5 5.4
2016-Aug-24 03:33N 51°53' E 005°45'7 6.6
2016-Aug-24 02:27N 51°54' E 005°34'9 4.8
2016-Aug-24 00:33N 51°58' E 005°20'5 5.2
2016-Aug-23 23:33N 51°60' E 005°13'8 7.7
2016-Aug-23 22:33N 52°06' E 005°05'8 7.6
2016-Aug-23 21:33N 52°13' E 005°00'8 8.0
2016-Aug-23 20:33N 52°21' E 004°59'7 7.3
2016-Aug-23 19:34N 52°25' E 004°49'2 2.0
2016-Aug-23 18:33N 52°24' E 004°46'0 0.0
2016-Aug-23 17:33N 52°24' E 004°46'0 0.0
2016-Aug-23 16:33N 52°24' E 004°46'0 0.0
2016-Aug-23 15:33N 52°24' E 004°46'0 0.0
2016-Aug-23 14:33N 52°24' E 004°46'0 0.0
2016-Aug-23 13:33N 52°24' E 004°46'0 0.0
2016-Aug-23 12:33N 52°24' E 004°46'0 0.0
2016-Aug-23 11:33N 52°24' E 004°46'0 0.0
2016-Aug-23 10:33N 52°24' E 004°46'0 0.0
2016-Aug-23 09:33N 52°24' E 004°46'2 1.6
2016-Aug-23 08:34N 52°25' E 004°48'0 0.1
2016-Aug-23 07:34N 52°25' E 004°48'0 0.0
2016-Aug-23 06:33N 52°25' E 004°48'1 1.3
2016-Aug-23 05:33N 52°24' E 004°49'0 0.0
2016-Aug-23 04:34N 52°24' E 004°49'0 0.0
2016-Aug-23 03:34N 52°24' E 004°49'0 0.0
2016-Aug-23 02:34N 52°24' E 004°49'0 0.0
2016-Aug-23 01:33N 52°24' E 004°49'0 0.0
2016-Aug-23 00:33N 52°24' E 004°49'0 0.0
2016-Aug-22 23:34N 52°24' E 004°49'0 0.0
2016-Aug-22 22:33N 52°24' E 004°49'0 0.0
2016-Aug-22 21:34N 52°24' E 004°49'0 0.0
2016-Aug-22 20:34N 52°24' E 004°49'1 1.3
2016-Aug-22 19:33N 52°25' E 004°48'0 0.0
2016-Aug-22 18:33N 52°25' E 004°48'0 0.0
2016-Aug-22 17:33N 52°25' E 004°48'0 0.0
2016-Aug-22 16:33N 52°25' E 004°48'0 0.0
2016-Aug-22 15:33N 52°25' E 004°48'0 0.0
2016-Aug-22 14:33N 52°25' E 004°48'0 0.0
2016-Aug-22 13:33N 52°25' E 004°48'0 0.0
2016-Aug-22 12:33N 52°25' E 004°48'0 0.0
2016-Aug-22 11:33N 52°25' E 004°48'0 0.0
2016-Aug-22 10:33N 52°25' E 004°48'0 0.0
2016-Aug-22 09:33N 52°25' E 004°48'0 0.0
2016-Aug-22 08:33N 52°25' E 004°48'0 0.0
2016-Aug-22 07:33N 52°25' E 004°48'0 0.0
2016-Aug-22 06:33N 52°25' E 004°48'0 0.0
2016-Aug-22 05:33N 52°25' E 004°48'0 0.0
2016-Aug-22 04:33N 52°25' E 004°48'0 0.0
2016-Aug-22 03:33N 52°25' E 004°48'0 0.0
2016-Aug-22 02:33N 52°25' E 004°48'0 0.0
2016-Aug-22 01:33N 52°25' E 004°48'0 0.0
2016-Aug-22 00:33N 52°25' E 004°48'0 0.0
2016-Aug-21 23:33N 52°25' E 004°48'0 0.0
2016-Aug-21 22:33N 52°25' E 004°48'0 0.0
2016-Aug-21 21:33N 52°25' E 004°48'0 0.0
2016-Aug-21 20:33N 52°25' E 004°48'0 0.0
2016-Aug-21 19:33N 52°25' E 004°48'0 0.0
2016-Aug-21 18:33N 52°25' E 004°48'0 0.0
2016-Aug-21 17:33N 52°25' E 004°48'0 0.0
2016-Aug-21 16:33N 52°25' E 004°48'0 0.0
2016-Aug-21 15:33N 52°25' E 004°48'0 0.0
2016-Aug-21 14:33N 52°25' E 004°48'0 0.0
2016-Aug-21 13:33N 52°25' E 004°48'0 0.0
2016-Aug-21 12:33N 52°25' E 004°48'0 0.0
2016-Aug-21 11:33N 52°25' E 004°48'0 0.0
2016-Aug-21 10:33N 52°25' E 004°48'0 0.0
2016-Aug-21 09:33N 52°25' E 004°48'0 0.0
2016-Aug-21 08:33N 52°25' E 004°48'0 0.0
2016-Aug-21 07:33N 52°25' E 004°48'0 0.0
2016-Aug-21 06:34N 52°25' E 004°48'0 0.4
2016-Aug-21 05:34N 52°25' E 004°49'6 6.3
2016-Aug-21 04:33N 52°22' E 004°57'7 7.3
2016-Aug-21 03:33N 52°15' E 005°01'7 7.3
2016-Aug-21 02:33N 52°08' E 005°03'8 7.7
2016-Aug-21 01:34N 52°01' E 005°09'7 7.0
2016-Aug-21 00:33N 51°58' E 005°19'12 5.1
2016-Aug-20 22:13N 51°54' E 005°38'7 9.6
2016-Aug-20 21:29N 51°52' E 005°49'17 8.3
2016-Aug-20 19:27N 51°49' E 006°16'12 8.5
2016-Aug-20 18:04N 51°41' E 006°28'5 9.2
2016-Aug-20 17:31N 51°39' E 006°36'7 6.9
2016-Aug-20 16:33N 51°33' E 006°41'14 2.1
2016-Aug-20 10:06N 51°32' E 007°03'0 0.0
2016-Aug-20 09:33N 51°32' E 007°03'0 0.0
2016-Aug-20 08:33N 51°32' E 007°03'0 0.0
2016-Aug-20 07:33N 51°32' E 007°03'0 0.0
2016-Aug-20 06:33N 51°32' E 007°03'0 0.0
2016-Aug-20 05:33N 51°32' E 007°03'0 0.0
2016-Aug-20 04:33N 51°32' E 007°03'0 0.0
2016-Aug-20 03:33N 51°32' E 007°03'0 0.0
2016-Aug-20 02:33N 51°32' E 007°03'0 0.0
2016-Aug-20 01:33N 51°32' E 007°03'0 0.0
2016-Aug-20 00:33N 51°32' E 007°03'0 0.1
2016-Aug-19 23:33N 51°32' E 007°03'0 0.0
2016-Aug-19 22:31N 51°32' E 007°03'0 0.0
2016-Aug-19 21:33N 51°32' E 007°03'0 0.0
2016-Aug-19 20:33N 51°32' E 007°03'0 0.0
2016-Aug-19 19:33N 51°32' E 007°03'0 0.0
2016-Aug-19 18:33N 51°32' E 007°03'0 0.0
2016-Aug-19 17:33N 51°32' E 007°03'0 0.0
2016-Aug-19 16:31N 51°32' E 007°03'0 0.0
2016-Aug-19 15:33N 51°32' E 007°03'0 0.0
2016-Aug-19 14:33N 51°32' E 007°03'0 0.0
2016-Aug-19 13:33N 51°32' E 007°03'0 0.0
2016-Aug-19 12:30N 51°32' E 007°03'0 0.0
2016-Aug-19 11:33N 51°32' E 007°03'0 0.0
2016-Aug-19 10:30N 51°32' E 007°03'0 0.0
2016-Aug-19 09:33N 51°32' E 007°03'0 0.0
2016-Aug-19 08:33N 51°32' E 007°03'0 0.0
2016-Aug-19 07:30N 51°32' E 007°03'0 0.0
2016-Aug-19 06:33N 51°32' E 007°03'0 0.0
2016-Aug-19 05:31N 51°32' E 007°03'3 2.4
2016-Aug-19 04:22N 51°30' E 006°59'17 1.2
2016-Aug-18 14:11N 51°17' E 006°42'4 6.1
2016-Aug-18 13:33N 51°13' E 006°44'18 8.1
2016-Aug-18 11:19N 50°58' E 006°60'6 7.8
2016-Aug-18 10:33N 50°52' E 007°02'9 9.3
2016-Aug-18 09:33N 50°44' E 007°07'1 0.0
2016-Aug-16 20:21N 50°43' E 007°09'4 4.6
2016-Aug-16 19:33N 50°46' E 007°05'5 4.5
2016-Aug-16 18:31N 50°49' E 007°00'3 3.2
2016-Aug-16 17:33N 50°52' E 007°02'3 3.3
2016-Aug-16 16:30N 50°55' E 006°58'13 4.0
2016-Aug-16 13:17N 51°07' E 006°52'3 3.2
2016-Aug-16 12:29N 51°09' E 006°50'3 3.0
2016-Aug-16 11:33N 51°11' E 006°46'3 2.6
2016-Aug-16 10:33N 51°14' E 006°45'3 2.9
2016-Aug-16 09:33N 51°16' E 006°42'15 2.8
2016-Aug-16 04:06N 51°30' E 006°52'8 3.1
2016-Aug-16 01:33N 51°32' E 007°04'0 0.1
2016-Aug-16 00:33N 51°32' E 007°04'0 0.0
2016-Aug-15 23:33N 51°32' E 007°04'0 0.0
2016-Aug-15 22:33N 51°32' E 007°04'0 0.0
2016-Aug-15 21:33N 51°32' E 007°04'0 0.0
2016-Aug-15 20:33N 51°32' E 007°04'0 0.0
2016-Aug-15 19:33N 51°32' E 007°04'0 0.0
2016-Aug-15 18:33N 51°32' E 007°04'0 0.0
2016-Aug-15 17:33N 51°32' E 007°04'0 0.0
2016-Aug-15 16:33N 51°32' E 007°04'0 0.0
2016-Aug-15 15:33N 51°32' E 007°04'0 0.1
2016-Aug-15 14:34N 51°32' E 007°04'0 0.0
2016-Aug-15 13:33N 51°32' E 007°04'0 0.0
2016-Aug-15 12:34N 51°32' E 007°04'0 0.0
2016-Aug-15 11:33N 51°32' E 007°04'0 0.0
2016-Aug-15 10:33N 51°32' E 007°04'0 0.0
2016-Aug-15 09:33N 51°32' E 007°04'0 0.0
2016-Aug-15 08:33N 51°32' E 007°04'0 0.0
2016-Aug-15 07:33N 51°32' E 007°04'0 0.0
2016-Aug-15 06:33N 51°32' E 007°04'0 0.0
2016-Aug-15 04:33N 51°32' E 007°04'0 0.0
2016-Aug-15 03:33N 51°32' E 007°04'0 0.0
2016-Aug-15 02:33N 51°32' E 007°04'0 0.0
2016-Aug-15 01:33N 51°32' E 007°04'0 0.0
2016-Aug-15 00:33N 51°32' E 007°04'0 0.0
2016-Aug-14 23:33N 51°32' E 007°04'0 0.0
2016-Aug-14 22:33N 51°32' E 007°04'0 0.0
2016-Aug-14 21:33N 51°32' E 007°04'0 0.0
2016-Aug-14 20:33N 51°32' E 007°04'0 0.0
2016-Aug-14 19:33N 51°32' E 007°04'0 0.0
2016-Aug-14 18:33N 51°32' E 007°04'0 0.0
2016-Aug-14 17:33N 51°32' E 007°04'0 0.0
2016-Aug-14 16:33N 51°32' E 007°04'0 0.0
2016-Aug-14 15:33N 51°32' E 007°04'0 0.0
2016-Aug-14 14:33N 51°32' E 007°04'0 0.0
2016-Aug-14 13:33N 51°32' E 007°04'0 0.0
2016-Aug-14 12:33N 51°32' E 007°04'  
Track history (hours):
 
Tides and Currents Weather Stations Pressure Air Temp Water Temp Dewpoint Dewpoint Depression Visibility Wind Speed Wind Dir Waves Ship Positions

Astra

Last reported at 2016-Aug-24 12:30 UTC. Time now 2016-Aug-24 17:57 UTC.
Position N 51°30' E 006°43'.

Length 110 m.

Type: Tanker. MMSI: 244650752.

Date/timePositionNaut miles runAvg speedWind from/ knotsBaromVisibWave heightAir tempDewpointWater temp
2016-Aug-24 12:30N 51°30' E 006°43'5 4.9
2016-Aug-24 11:33N 51°34' E 006°41'4 4.1
2016-Aug-24 10:33N 51°37' E 006°36'4 4.2
2016-Aug-24 09:33N 51°40' E 006°31'26 5.2
2016-Aug-24 04:32N 51°52' E 005°54'5 5.4
2016-Aug-24 03:33N 51°53' E 005°45'7 6.6
2016-Aug-24 02:27N 51°54' E 005°34'9 4.8
2016-Aug-24 00:33N 51°58' E 005°20'5 5.2
2016-Aug-23 23:33N 51°60' E 005°13'8 7.7
2016-Aug-23 22:33N 52°06' E 005°05'8 7.6
2016-Aug-23 21:33N 52°13' E 005°00'8 8.0
2016-Aug-23 20:33N 52°21' E 004°59'7 7.3
2016-Aug-23 19:34N 52°25' E 004°49'2 2.0
2016-Aug-23 18:33N 52°24' E 004°46'0 0.0
2016-Aug-23 17:33N 52°24' E 004°46'0 0.0
2016-Aug-23 16:33N 52°24' E 004°46'0 0.0
2016-Aug-23 15:33N 52°24' E 004°46'0 0.0
2016-Aug-23 14:33N 52°24' E 004°46'0 0.0
2016-Aug-23 13:33N 52°24' E 004°46'0 0.0
2016-Aug-23 12:33N 52°24' E 004°46'0 0.0
2016-Aug-23 11:33N 52°24' E 004°46'0 0.0
2016-Aug-23 10:33N 52°24' E 004°46'0 0.0
2016-Aug-23 09:33N 52°24' E 004°46'2 1.6
2016-Aug-23 08:34N 52°25' E 004°48'0 0.1
2016-Aug-23 07:34N 52°25' E 004°48'0 0.0
2016-Aug-23 06:33N 52°25' E 004°48'1 1.3
2016-Aug-23 05:33N 52°24' E 004°49'0 0.0
2016-Aug-23 04:34N 52°24' E 004°49'0 0.0
2016-Aug-23 03:34N 52°24' E 004°49'0 0.0
2016-Aug-23 02:34N 52°24' E 004°49'0 0.0
2016-Aug-23 01:33N 52°24' E 004°49'0 0.0
2016-Aug-23 00:33N 52°24' E 004°49'0 0.0
2016-Aug-22 23:34N 52°24' E 004°49'0 0.0
2016-Aug-22 22:33N 52°24' E 004°49'0 0.0
2016-Aug-22 21:34N 52°24' E 004°49'0 0.0
2016-Aug-22 20:34N 52°24' E 004°49'1 1.3
2016-Aug-22 19:33N 52°25' E 004°48'0 0.0
2016-Aug-22 18:33N 52°25' E 004°48'0 0.0
2016-Aug-22 17:33N 52°25' E 004°48'0 0.0
2016-Aug-22 16:33N 52°25' E 004°48'0 0.0
2016-Aug-22 15:33N 52°25' E 004°48'0 0.0
2016-Aug-22 14:33N 52°25' E 004°48'0 0.0
2016-Aug-22 13:33N 52°25' E 004°48'0 0.0
2016-Aug-22 12:33N 52°25' E 004°48'0 0.0
2016-Aug-22 11:33N 52°25' E 004°48'0 0.0
2016-Aug-22 10:33N 52°25' E 004°48'0 0.0
2016-Aug-22 09:33N 52°25' E 004°48'0 0.0
2016-Aug-22 08:33N 52°25' E 004°48'0 0.0
2016-Aug-22 07:33N 52°25' E 004°48'0 0.0
2016-Aug-22 06:33N 52°25' E 004°48'0 0.0
2016-Aug-22 05:33N 52°25' E 004°48'0 0.0
2016-Aug-22 04:33N 52°25' E 004°48'0 0.0
2016-Aug-22 03:33N 52°25' E 004°48'0 0.0
2016-Aug-22 02:33N 52°25' E 004°48'0 0.0
2016-Aug-22 01:33N 52°25' E 004°48'0 0.0
2016-Aug-22 00:33N 52°25' E 004°48'0 0.0
2016-Aug-21 23:33N 52°25' E 004°48'0 0.0
2016-Aug-21 22:33N 52°25' E 004°48'0 0.0
2016-Aug-21 21:33N 52°25' E 004°48'0 0.0
2016-Aug-21 20:33N 52°25' E 004°48'0 0.0
2016-Aug-21 19:33N 52°25' E 004°48'0 0.0
2016-Aug-21 18:33N 52°25' E 004°48'0 0.0
2016-Aug-21 17:33N 52°25' E 004°48'0 0.0
2016-Aug-21 16:33N 52°25' E 004°48'0 0.0
2016-Aug-21 15:33N 52°25' E 004°48'0 0.0
2016-Aug-21 14:33N 52°25' E 004°48'0 0.0
2016-Aug-21 13:33N 52°25' E 004°48'0 0.0
2016-Aug-21 12:33N 52°25' E 004°48'0 0.0
2016-Aug-21 11:33N 52°25' E 004°48'0 0.0
2016-Aug-21 10:33N 52°25' E 004°48'0 0.0
2016-Aug-21 09:33N 52°25' E 004°48'0 0.0
2016-Aug-21 08:33N 52°25' E 004°48'0 0.0
2016-Aug-21 07:33N 52°25' E 004°48'0 0.0
2016-Aug-21 06:34N 52°25' E 004°48'0 0.4
2016-Aug-21 05:34N 52°25' E 004°49'6 6.3
2016-Aug-21 04:33N 52°22' E 004°57'7 7.3
2016-Aug-21 03:33N 52°15' E 005°01'7 7.3
2016-Aug-21 02:33N 52°08' E 005°03'8 7.7
2016-Aug-21 01:34N 52°01' E 005°09'7 7.0
2016-Aug-21 00:33N 51°58' E 005°19'12 5.1
2016-Aug-20 22:13N 51°54' E 005°38'7 9.6
2016-Aug-20 21:29N 51°52' E 005°49'17 8.3
2016-Aug-20 19:27N 51°49' E 006°16'12 8.5
2016-Aug-20 18:04N 51°41' E 006°28'5 9.2
2016-Aug-20 17:31N 51°39' E 006°36'7 6.9
2016-Aug-20 16:33N 51°33' E 006°41'14 2.1
2016-Aug-20 10:06N 51°32' E 007°03'0 0.0
2016-Aug-20 09:33N 51°32' E 007°03'0 0.0
2016-Aug-20 08:33N 51°32' E 007°03'0 0.0
2016-Aug-20 07:33N 51°32' E 007°03'0 0.0
2016-Aug-20 06:33N 51°32' E 007°03'0 0.0
2016-Aug-20 05:33N 51°32' E 007°03'0 0.0
2016-Aug-20 04:33N 51°32' E 007°03'0 0.0
2016-Aug-20 03:33N 51°32' E 007°03'0 0.0
2016-Aug-20 02:33N 51°32' E 007°03'0 0.0
2016-Aug-20 01:33N 51°32' E 007°03'0 0.0
2016-Aug-20 00:33N 51°32' E 007°03'0 0.1
2016-Aug-19 23:33N 51°32' E 007°03'0 0.0
2016-Aug-19 22:31N 51°32' E 007°03'0 0.0
2016-Aug-19 21:33N 51°32' E 007°03'0 0.0
2016-Aug-19 20:33N 51°32' E 007°03'0 0.0
2016-Aug-19 19:33N 51°32' E 007°03'0 0.0
2016-Aug-19 18:33N 51°32' E 007°03'0 0.0
2016-Aug-19 17:33N 51°32' E 007°03'0 0.0
2016-Aug-19 16:31N 51°32' E 007°03'0 0.0
2016-Aug-19 15:33N 51°32' E 007°03'0 0.0
2016-Aug-19 14:33N 51°32' E 007°03'0 0.0
2016-Aug-19 13:33N 51°32' E 007°03'0 0.0
2016-Aug-19 12:30N 51°32' E 007°03'0 0.0
2016-Aug-19 11:33N 51°32' E 007°03'0 0.0
2016-Aug-19 10:30N 51°32' E 007°03'0 0.0
2016-Aug-19 09:33N 51°32' E 007°03'0 0.0
2016-Aug-19 08:33N 51°32' E 007°03'0 0.0
2016-Aug-19 07:30N 51°32' E 007°03'0 0.0
2016-Aug-19 06:33N 51°32' E 007°03'0 0.0
2016-Aug-19 05:31N 51°32' E 007°03'3 2.4
2016-Aug-19 04:22N 51°30' E 006°59'17 1.2
2016-Aug-18 14:11N 51°17' E 006°42'4 6.1
2016-Aug-18 13:33N 51°13' E 006°44'18 8.1
2016-Aug-18 11:19N 50°58' E 006°60'6 7.8
2016-Aug-18 10:33N 50°52' E 007°02'9 9.3
2016-Aug-18 09:33N 50°44' E 007°07'1 0.0
2016-Aug-16 20:21N 50°43' E 007°09'4 4.6
2016-Aug-16 19:33N 50°46' E 007°05'5 4.5
2016-Aug-16 18:31N 50°49' E 007°00'3 3.2
2016-Aug-16 17:33N 50°52' E 007°02'3 3.3
2016-Aug-16 16:30N 50°55' E 006°58'13 4.0
2016-Aug-16 13:17N 51°07' E 006°52'3 3.2
2016-Aug-16 12:29N 51°09' E 006°50'3 3.0
2016-Aug-16 11:33N 51°11' E 006°46'3 2.6
2016-Aug-16 10:33N 51°14' E 006°45'3 2.9
2016-Aug-16 09:33N 51°16' E 006°42'15 2.8
2016-Aug-16 04:06N 51°30' E 006°52'8 3.1
2016-Aug-16 01:33N 51°32' E 007°04'0 0.1
2016-Aug-16 00:33N 51°32' E 007°04'0 0.0
2016-Aug-15 23:33N 51°32' E 007°04'0 0.0
2016-Aug-15 22:33N 51°32' E 007°04'0 0.0
2016-Aug-15 21:33N 51°32' E 007°04'0 0.0
2016-Aug-15 20:33N 51°32' E 007°04'0 0.0
2016-Aug-15 19:33N 51°32' E 007°04'0 0.0
2016-Aug-15 18:33N 51°32' E 007°04'0 0.0
2016-Aug-15 17:33N 51°32' E 007°04'0 0.0
2016-Aug-15 16:33N 51°32' E 007°04'0 0.0
2016-Aug-15 15:33N 51°32' E 007°04'0 0.1
2016-Aug-15 14:34N 51°32' E 007°04'0 0.0
2016-Aug-15 13:33N 51°32' E 007°04'0 0.0
2016-Aug-15 12:34N 51°32' E 007°04'0 0.0
2016-Aug-15 11:33N 51°32' E 007°04'0 0.0
2016-Aug-15 10:33N 51°32' E 007°04'0 0.0
2016-Aug-15 09:33N 51°32' E 007°04'0 0.0
2016-Aug-15 08:33N 51°32' E 007°04'0 0.0
2016-Aug-15 07:33N 51°32' E 007°04'0 0.0
2016-Aug-15 06:33N 51°32' E 007°04'0 0.0
2016-Aug-15 04:33N 51°32' E 007°04'0 0.0
2016-Aug-15 03:33N 51°32' E 007°04'0 0.0
2016-Aug-15 02:33N 51°32' E 007°04'0 0.0
2016-Aug-15 01:33N 51°32' E 007°04'0 0.0
2016-Aug-15 00:33N 51°32' E 007°04'0 0.0
2016-Aug-14 23:33N 51°32' E 007°04'0 0.0
2016-Aug-14 22:33N 51°32' E 007°04'0 0.0
2016-Aug-14 21:33N 51°32' E 007°04'0 0.0
2016-Aug-14 20:33N 51°32' E 007°04'0 0.0
2016-Aug-14 19:33N 51°32' E 007°04'0 0.0
2016-Aug-14 18:33N 51°32' E 007°04'0 0.0
2016-Aug-14 17:33N 51°32' E 007°04'0 0.0
2016-Aug-14 16:33N 51°32' E 007°04'0 0.0
2016-Aug-14 15:33N 51°32' E 007°04'0 0.0
2016-Aug-14 14:33N 51°32' E 007°04'0 0.0
2016-Aug-14 13:33N 51°32' E 007°04'0 0.0
2016-Aug-14 12:33N 51°32' E 007°04'  

Dump ship's entire track history